createdAt,value
2022-08-19T00:01:26.281Z,17.73
2022-08-19T00:04:01.285Z,16.80
2022-08-19T00:06:29.233Z,16.38
2022-08-19T00:08:56.683Z,17.20
2022-08-19T00:11:26.041Z,16.88
2022-08-19T00:13:53.846Z,17.17
2022-08-19T00:16:25.090Z,18.15
2022-08-19T00:18:54.471Z,16.95
2022-08-19T00:21:21.438Z,19.00
2022-08-19T00:23:48.589Z,17.80
2022-08-19T00:26:15.722Z,17.25
2022-08-19T00:28:42.771Z,17.98
2022-08-19T00:31:10.044Z,18.58
2022-08-19T00:33:37.074Z,17.45
2022-08-19T00:36:07.335Z,17.73
2022-08-19T00:38:37.997Z,18.65
2022-08-19T00:41:06.460Z,17.10
2022-08-19T00:43:33.482Z,17.43
2022-08-19T00:46:00.576Z,18.08
2022-08-19T00:48:27.648Z,18.15
2022-08-19T00:50:54.661Z,18.63
2022-08-19T00:53:23.179Z,18.25
2022-08-19T00:55:51.722Z,19.30
2022-08-19T00:58:21.465Z,19.27
2022-08-19T01:00:48.807Z,18.73
2022-08-19T01:03:19.240Z,19.33
2022-08-19T01:05:46.827Z,17.95
2022-08-19T01:08:15.119Z,18.75
2022-08-19T01:10:44.824Z,17.63
2022-08-19T01:13:11.949Z,17.38
2022-08-19T01:15:45.228Z,18.08
2022-08-19T01:18:14.283Z,18.17
2022-08-19T01:23:08.386Z,17.92
2022-08-19T01:25:51.130Z,18.02
2022-08-19T01:28:33.864Z,18.33
2022-08-19T01:31:01.533Z,19.38
2022-08-19T01:33:35.171Z,19.52
2022-08-19T01:36:07.699Z,18.00
2022-08-19T01:38:37.526Z,18.20
2022-08-19T01:41:12.421Z,19.20
2022-08-19T01:43:39.504Z,19.40
2022-08-19T01:46:26.605Z,19.42
2022-08-19T01:48:53.654Z,18.58
2022-08-19T01:51:20.623Z,18.48
2022-08-19T01:53:52.312Z,18.02
2022-08-19T01:56:20.048Z,19.10
2022-08-19T02:09:13.545Z,18.38
2022-08-19T02:11:43.346Z,18.25
2022-08-19T02:14:10.560Z,20.42
2022-08-19T02:16:38.201Z,19.92
2022-08-19T02:22:08.653Z,19.77
2022-08-19T02:24:43.810Z,19.33
2022-08-19T02:27:10.863Z,19.02
2022-08-19T02:29:38.032Z,19.52
2022-08-19T02:34:30.482Z,20.15
2022-08-19T02:37:01.810Z,21.63
2022-08-19T02:49:39.856Z,18.30
2022-08-19T02:52:06.870Z,20.70
2022-08-19T02:54:33.838Z,20.48
2022-08-19T02:57:01.416Z,19.73
2022-08-19T02:59:31.539Z,18.95
2022-08-19T03:01:58.620Z,20.55
2022-08-19T03:04:25.647Z,19.17
2022-08-19T03:06:52.887Z,19.55
2022-08-19T03:09:20.718Z,20.75
2022-08-19T03:11:48.708Z,20.92
2022-08-19T03:14:19.889Z,21.50
2022-08-19T03:16:49.538Z,20.15
2022-08-19T03:19:18.180Z,19.92
2022-08-19T03:21:49.326Z,20.20
2022-08-19T03:24:17.346Z,20.25
2022-08-19T03:26:50.218Z,21.00
2022-08-19T03:29:22.219Z,19.52
2022-08-19T03:32:04.687Z,20.42
2022-08-19T04:47:49.114Z,19.05
2022-08-19T04:50:16.231Z,19.88
2022-08-19T04:52:43.918Z,19.05
2022-08-19T04:55:11.858Z,19.70
2022-08-19T04:57:41.315Z,19.60
2022-08-19T05:00:09.914Z,19.13
2022-08-19T05:02:38.801Z,19.55
2022-08-19T05:05:07.752Z,18.67
2022-08-19T05:07:35.034Z,19.60
2022-08-19T05:10:02.227Z,19.00
2022-08-19T05:12:30.005Z,20.02
2022-08-19T05:14:58.659Z,19.92
2022-08-19T05:17:28.979Z,19.48
2022-08-19T05:20:15.742Z,19.42
2022-08-19T05:22:44.014Z,18.63
2022-08-19T05:25:13.833Z,18.17
2022-08-19T05:27:41.615Z,17.80
2022-08-19T05:30:09.062Z,18.40
2022-08-19T05:32:36.352Z,18.55
2022-08-19T05:35:03.554Z,18.58
2022-08-19T05:37:30.594Z,17.42
2022-08-19T05:39:57.675Z,17.90
2022-08-19T05:42:24.944Z,17.98
2022-08-19T05:44:52.522Z,18.15
2022-08-19T05:47:20.906Z,16.60
2022-08-19T05:49:48.442Z,17.30
2022-08-19T05:52:16.948Z,16.10
2022-08-19T05:54:48.953Z,17.05
2022-08-19T05:57:21.664Z,16.75
2022-08-19T05:59:53.037Z,17.08
2022-08-19T06:02:29.454Z,16.63
2022-08-19T06:04:58.783Z,15.80
2022-08-19T06:12:05.164Z,16.90
2022-08-19T06:14:33.554Z,17.23
2022-08-19T06:17:06.783Z,18.58
2022-08-19T06:19:34.761Z,15.60
2022-08-19T06:22:08.520Z,17.75
2022-08-19T06:24:36.583Z,15.30
2022-08-19T06:27:04.329Z,15.40
2022-08-19T06:29:31.327Z,16.08
2022-08-19T06:32:00.330Z,15.43
2022-08-19T06:36:56.258Z,15.68
2022-08-19T06:39:27.976Z,15.55
2022-08-19T06:44:43.261Z,15.55
2022-08-19T06:47:14.617Z,14.95
2022-08-19T06:49:42.422Z,14.48
2022-08-19T06:52:09.707Z,14.88
2022-08-19T06:54:55.557Z,15.50
2022-08-19T06:57:23.547Z,13.98
2022-08-19T06:59:50.699Z,13.75
2022-08-19T07:04:45.657Z,13.55
2022-08-19T07:07:19.901Z,13.25
2022-08-19T07:09:51.571Z,13.23
2022-08-19T07:12:25.077Z,12.98
2022-08-19T07:14:53.919Z,13.68
2022-08-19T07:17:21.907Z,10.95
2022-08-19T07:19:49.376Z,11.57
2022-08-19T07:22:17.330Z,9.38
2022-08-19T07:24:51.190Z,10.27
2022-08-19T07:27:24.486Z,9.43
2022-08-19T07:29:55.966Z,8.77
2022-08-19T07:32:27.051Z,8.57
2022-08-19T07:34:54.259Z,9.95
2022-08-19T07:37:21.282Z,7.90
2022-08-19T07:39:48.767Z,8.77
2022-08-19T07:42:15.941Z,7.97
2022-08-19T07:44:50.031Z,8.25
2022-08-19T07:47:58.758Z,7.63
2022-08-19T07:50:07.678Z,8.83
2022-08-19T07:52:35.394Z,8.73
2022-08-19T07:55:04.942Z,6.03
2022-08-19T07:57:32.059Z,6.30
2022-08-19T07:59:59.444Z,6.65
2022-08-19T08:02:26.673Z,7.22
2022-08-19T08:05:12.222Z,6.85
2022-08-19T08:07:59.470Z,6.47
2022-08-19T08:10:26.868Z,6.95
2022-08-19T08:13:08.757Z,5.63
2022-08-19T08:15:42.171Z,5.53
2022-08-19T08:18:10.818Z,5.93
2022-08-19T08:20:38.189Z,6.10
2022-08-19T08:23:23.622Z,5.93
2022-08-19T08:25:50.852Z,6.75
2022-08-19T08:28:18.638Z,6.85
2022-08-19T08:30:49.161Z,7.10
2022-08-19T08:33:32.995Z,7.57
2022-08-19T08:36:08.130Z,6.80
2022-08-19T08:38:42.803Z,10.07
2022-08-19T08:41:20.903Z,6.85
2022-08-19T08:43:49.820Z,7.22
2022-08-19T08:46:31.104Z,7.38
2022-08-19T08:49:05.303Z,7.50
2022-08-19T08:54:14.895Z,6.53
2022-08-19T08:56:44.056Z,6.07
2022-08-19T08:59:29.519Z,6.25
2022-08-19T09:01:56.614Z,6.85
2022-08-19T09:04:23.850Z,6.45
2022-08-19T09:07:33.884Z,6.72
2022-08-19T09:10:11.771Z,5.50
2022-08-19T09:13:09.742Z,5.40
2022-08-19T09:15:49.011Z,6.07
2022-08-19T09:18:19.220Z,5.85
2022-08-19T09:20:48.462Z,7.75
2022-08-19T09:23:27.274Z,5.85
2022-08-19T09:25:54.599Z,6.03
2022-08-19T09:28:26.970Z,5.53
2022-08-19T09:30:54.130Z,6.05
2022-08-19T09:33:21.268Z,5.55
2022-08-19T09:35:49.942Z,5.82
2022-08-19T09:38:21.646Z,6.03
2022-08-19T09:40:50.954Z,7.40
2022-08-19T09:43:33.602Z,6.38
2022-08-19T09:46:10.540Z,6.18
2022-08-19T09:48:37.938Z,7.35
2022-08-19T09:51:11.863Z,6.78
2022-08-19T09:53:39.181Z,6.90
2022-08-19T09:56:07.264Z,6.18
2022-08-19T09:58:36.937Z,7.07
2022-08-19T10:01:04.318Z,6.13
2022-08-19T10:03:31.384Z,7.43
2022-08-19T10:05:59.767Z,7.18
2022-08-19T10:08:32.422Z,56.83
2022-08-19T10:10:59.600Z,16.42
2022-08-19T10:13:46.588Z,6.10
2022-08-19T10:16:17.215Z,6.40
2022-08-19T10:18:44.764Z,5.45
2022-08-19T10:21:28.527Z,5.18
2022-08-19T10:24:01.056Z,5.10
2022-08-19T10:26:30.474Z,5.90
2022-08-19T10:28:58.135Z,6.05
2022-08-19T10:34:26.792Z,6.13
2022-08-19T10:37:00.421Z,5.45
2022-08-19T10:39:31.166Z,5.70
2022-08-19T10:41:59.159Z,5.72
2022-08-19T10:44:31.992Z,6.18
2022-08-19T10:47:00.214Z,6.82
2022-08-19T10:49:28.093Z,5.63
2022-08-19T10:52:18.969Z,6.10
2022-08-19T11:12:14.975Z,5.25
2022-08-19T11:14:41.946Z,4.38
2022-08-19T11:17:08.920Z,5.88
2022-08-19T11:19:36.597Z,4.70
2022-08-19T11:22:04.469Z,4.90
2022-08-19T11:24:31.595Z,4.55
2022-08-19T11:27:03.695Z,5.05
2022-08-19T11:29:30.668Z,4.60
2022-08-19T11:31:57.619Z,5.07
2022-08-19T11:34:26.515Z,4.75
2022-08-19T11:36:58.062Z,5.18
2022-08-19T11:39:25.249Z,5.13
2022-08-19T11:41:52.451Z,5.70
2022-08-19T11:44:19.467Z,5.70
2022-08-19T11:46:47.516Z,5.60
2022-08-19T11:49:19.874Z,5.50
2022-08-19T11:51:47.213Z,5.22
2022-08-19T11:54:15.259Z,5.35
2022-08-19T11:56:42.380Z,6.15
2022-08-19T11:59:14.079Z,6.18
2022-08-19T12:01:43.788Z,5.57
2022-08-19T12:04:11.367Z,5.63
2022-08-19T12:06:39.335Z,6.10
2022-08-19T12:09:07.477Z,6.18
2022-08-19T12:14:01.824Z,6.80
2022-08-19T12:16:29.709Z,6.68
2022-08-19T12:18:56.888Z,6.05
2022-08-19T12:21:26.181Z,6.88
2022-08-19T12:23:55.766Z,6.80
2022-08-19T12:26:23.099Z,7.00
2022-08-19T12:28:50.019Z,7.20
2022-08-19T12:31:17.632Z,7.78
2022-08-19T12:33:44.632Z,7.50
2022-08-19T12:36:12.652Z,7.57
2022-08-19T12:38:39.786Z,7.47
2022-08-19T12:41:07.450Z,8.02
2022-08-19T12:43:36.051Z,7.47
2022-08-19T12:46:05.306Z,10.77
2022-08-19T12:48:34.792Z,9.30
2022-08-19T12:51:07.301Z,9.02
2022-08-19T12:53:34.551Z,7.90
2022-08-19T12:56:06.444Z,7.65
2022-08-19T12:58:37.009Z,8.32
2022-08-19T13:01:12.389Z,8.38
2022-08-19T13:03:40.739Z,8.38
2022-08-19T13:06:08.911Z,8.10
2022-08-19T13:08:35.979Z,8.70
2022-08-19T13:11:15.997Z,9.20
2022-08-19T13:13:43.881Z,9.02
2022-08-19T13:16:14.308Z,8.73
2022-08-19T13:18:42.311Z,8.27
2022-08-19T13:21:10.190Z,10.07
2022-08-19T13:23:37.230Z,8.45
2022-08-19T13:26:07.025Z,9.15
2022-08-19T13:28:52.742Z,9.38
2022-08-19T13:31:39.136Z,9.02
2022-08-19T13:34:06.868Z,8.85
2022-08-19T13:36:34.467Z,8.40
2022-08-19T13:39:01.531Z,8.40
2022-08-19T13:41:28.815Z,8.90
2022-08-19T13:43:55.934Z,9.05
2022-08-19T13:46:22.940Z,8.45
2022-08-19T13:48:50.012Z,8.25
2022-08-19T13:51:17.726Z,7.93
2022-08-19T13:53:47.877Z,8.37
2022-08-19T13:56:17.180Z,8.13
2022-08-19T13:58:44.667Z,8.02
2022-08-19T14:01:11.927Z,8.10
2022-08-19T14:03:39.099Z,7.93
2022-08-19T14:06:06.263Z,7.45
2022-08-19T14:08:33.775Z,6.28
2022-08-19T14:11:05.410Z,6.88
2022-08-19T14:13:35.052Z,6.93
2022-08-19T14:16:02.022Z,7.25
2022-08-19T14:18:28.932Z,7.38
2022-08-19T14:20:57.970Z,7.35
2022-08-19T14:23:25.960Z,8.30
2022-08-19T14:25:52.950Z,7.82
2022-08-19T14:28:19.959Z,8.15
2022-08-19T14:30:46.908Z,9.43
2022-08-19T14:33:14.996Z,8.77
2022-08-19T14:35:46.044Z,7.88
2022-08-19T14:38:17.384Z,8.50
2022-08-19T14:40:44.349Z,8.90
2022-08-19T14:43:11.391Z,9.00
2022-08-19T14:45:40.762Z,9.02
2022-08-19T14:48:08.711Z,9.20
2022-08-19T14:50:45.884Z,9.33
2022-08-19T14:53:13.496Z,8.95
2022-08-19T14:55:44.244Z,9.80
2022-08-19T14:58:29.266Z,9.25
2022-08-19T15:01:00.951Z,9.50
2022-08-19T15:03:28.574Z,9.18
2022-08-19T15:05:56.564Z,9.85
2022-08-19T15:08:25.851Z,10.03
2022-08-19T15:10:53.754Z,9.98
2022-08-19T15:13:20.717Z,10.77
2022-08-19T15:15:48.767Z,9.95
2022-08-19T15:18:15.825Z,10.13
2022-08-19T15:20:44.640Z,11.00
2022-08-19T15:23:17.354Z,12.10
2022-08-19T15:25:44.758Z,11.55
2022-08-19T15:28:12.227Z,10.95
2022-08-19T15:30:40.209Z,11.45
2022-08-19T15:33:07.406Z,14.23
2022-08-19T15:35:34.555Z,15.35
2022-08-19T15:38:01.898Z,10.43
2022-08-19T15:40:29.055Z,12.15
2022-08-19T15:42:56.213Z,11.45
2022-08-19T15:45:23.280Z,9.55
2022-08-19T15:47:50.401Z,11.10
2022-08-19T15:50:20.019Z,12.75
2022-08-19T15:52:49.932Z,12.45
2022-08-19T15:55:33.969Z,11.80
2022-08-19T15:58:29.918Z,11.80
2022-08-19T16:01:17.816Z,11.20
2022-08-19T16:04:13.711Z,11.25
2022-08-19T16:06:50.746Z,11.98
2022-08-19T16:09:19.045Z,11.05
2022-08-19T16:11:56.475Z,11.55
2022-08-19T16:14:23.771Z,12.35
2022-08-19T16:16:50.984Z,11.57
2022-08-19T16:19:18.569Z,11.35
2022-08-19T16:21:48.775Z,11.35
2022-08-19T16:24:16.962Z,11.57
2022-08-19T16:26:44.436Z,13.07
2022-08-19T16:29:13.201Z,12.05
2022-08-19T16:31:42.094Z,11.98
2022-08-19T16:34:09.276Z,12.23
2022-08-19T16:36:36.523Z,11.68
2022-08-19T16:39:08.478Z,11.38
2022-08-19T16:41:40.233Z,11.85
2022-08-19T16:44:07.773Z,11.85
2022-08-19T16:46:35.211Z,12.40
2022-08-19T16:49:13.726Z,12.77
2022-08-19T16:51:41.723Z,12.13
2022-08-19T16:54:09.028Z,11.77
2022-08-19T16:56:36.163Z,11.43
2022-08-19T16:59:03.572Z,12.32
2022-08-19T17:01:31.597Z,11.55
2022-08-19T17:03:58.859Z,13.90
2022-08-19T17:06:28.718Z,12.23
2022-08-19T17:11:47.496Z,10.13
2022-08-19T17:14:15.076Z,9.57
2022-08-19T17:16:47.382Z,10.20
2022-08-19T17:19:14.880Z,11.20
2022-08-19T17:21:41.939Z,8.95
2022-08-19T17:24:09.224Z,9.13
2022-08-19T17:26:37.016Z,9.68
2022-08-19T17:29:05.182Z,9.60
2022-08-19T17:31:32.305Z,10.93
2022-08-19T17:34:00.291Z,10.95
2022-08-19T17:36:29.435Z,11.30
2022-08-19T17:38:57.914Z,10.70
2022-08-19T17:41:25.339Z,11.13
2022-08-19T17:43:52.816Z,11.30
2022-08-19T17:46:20.596Z,12.27
2022-08-19T17:48:53.011Z,12.63
2022-08-19T17:51:27.879Z,12.57
2022-08-19T17:53:55.351Z,11.80
2022-08-19T17:56:23.687Z,10.88
2022-08-19T17:59:00.209Z,10.65
2022-08-19T18:01:28.802Z,10.25
2022-08-19T18:04:11.366Z,10.52
2022-08-19T18:06:38.421Z,10.65
2022-08-19T18:09:06.156Z,11.48
2022-08-19T18:11:33.496Z,12.15
2022-08-19T18:14:02.113Z,11.18
2022-08-19T18:16:29.696Z,10.23
2022-08-19T18:18:56.851Z,10.45
2022-08-19T20:17:21.467Z,13.57
2022-08-19T20:19:53.706Z,14.32
2022-08-19T23:40:17.558Z,12.80
2022-08-19T23:49:49.363Z,9.60
2022-08-19T23:52:17.265Z,9.43
2022-08-19T23:54:44.383Z,10.18
2022-08-19T23:59:57.849Z,12.90
